Time;durP1;ratioP1;P1;durP2;ratioP2;P2;SDS_P1;SDS_P2;PMS_P1;PMS_P2;Temp;Humidity;BMP_temperature;BMP_pressure;BME280_temperature;BME280_humidity;BME280_pressure;Samples;Min_cycle;Max_cycle;Signal;HPM_P1;HPM_P2
2023/01/07 00:01:19;;;;;;;0.10;0.10;;;18.30;69.60;;;;;;5071910;28;20588;-19
2023/01/07 00:03:45;;;;;;;0.20;0.20;;;18.30;69.60;;;;;;5073119;28;20032;-19
2023/01/07 00:06:13;;;;;;;0.20;0.20;;;18.30;69.50;;;;;;5080606;28;20428;-28
2023/01/07 00:08:40;;;;;;;0.38;0.38;;;18.30;69.50;;;;;;5073451;28;20140;-27
2023/01/07 00:11:10;;;;;;;0.25;0.20;;;18.30;69.50;;;;;;5074272;28;20095;-23
2023/01/07 00:13:36;;;;;;;0.20;0.20;;;18.30;69.60;;;;;;5068330;28;20032;-23
2023/01/07 00:16:04;;;;;;;0.17;0.17;;;18.30;69.60;;;;;;5075206;28;20048;-17
2023/01/07 00:18:29;;;;;;;0.25;0.20;;;18.30;69.60;;;;;;5071295;28;20045;-17
2023/01/07 00:20:56;;;;;;;0.20;0.20;;;18.30;69.60;;;;;;5078784;28;20052;-16
2023/01/07 00:23:23;;;;;;;0.20;0.20;;;18.30;69.60;;;;;;5070890;28;20047;-22
2023/01/07 00:25:49;;;;;;;0.10;0.10;;;18.20;69.70;;;;;;5078634;28;20052;-34
2023/01/07 00:28:15;;;;;;;0.25;0.10;;;18.30;69.50;;;;;;5070584;28;20040;-30
2023/01/07 00:30:40;;;;;;;0.20;0.20;;;18.30;69.50;;;;;;5073381;28;20051;-22
2023/01/07 00:33:06;;;;;;;0.30;0.30;;;18.20;69.50;;;;;;5072363;28;20102;-36
2023/01/07 00:35:33;;;;;;;0.30;0.30;;;18.20;69.60;;;;;;5076725;28;20051;-26
2023/01/07 00:37:58;;;;;;;0.10;0.10;;;18.30;69.50;;;;;;5073499;28;20036;-32
2023/01/07 00:40:24;;;;;;;0.10;0.10;;;18.30;69.50;;;;;;5072803;28;20075;-42
2023/01/07 00:42:53;;;;;;;0.30;0.20;;;18.30;69.50;;;;;;5072963;28;20040;-42
2023/01/07 00:45:19;;;;;;;0.10;0.10;;;18.20;69.60;;;;;;5061605;28;20079;-37
2023/01/07 00:47:44;;;;;;;0.30;0.30;;;18.30;69.60;;;;;;5059824;28;20102;-31
2023/01/07 00:50:10;;;;;;;0.20;0.20;;;18.30;69.50;;;;;;5059489;28;20040;-23
2023/01/07 00:52:35;;;;;;;0.40;0.40;;;18.30;69.40;;;;;;5059577;28;20036;-31
2023/01/07 00:55:01;;;;;;;0.20;0.20;;;18.20;69.40;;;;;;5056988;28;20136;-20
2023/01/07 00:57:26;;;;;;;0.20;0.20;;;18.20;69.60;;;;;;5054622;28;20391;-20
2023/01/07 00:59:52;;;;;;;0.10;0.10;;;18.20;69.60;;;;;;5056487;28;20056;-18
2023/01/07 01:02:18;;;;;;;0.20;0.20;;;18.20;69.60;;;;;;5055364;28;20056;-23
2023/01/07 01:04:43;;;;;;;0.20;0.20;;;18.20;69.60;;;;;;5056526;28;20040;-10
2023/01/07 01:07:09;;;;;;;0.13;0.10;;;18.20;69.50;;;;;;5057742;28;20506;-14
2023/01/07 01:09:34;;;;;;;0.20;0.20;;;18.30;69.50;;;;;;5060064;28;20036;-14
2023/01/07 01:12:00;;;;;;;0.20;0.10;;;18.20;69.50;;;;;;5059390;28;20044;-10
2023/01/07 01:14:25;;;;;;;0.20;0.10;;;18.20;69.50;;;;;;5055561;28;20490;-17
2023/01/07 01:16:51;;;;;;;0.35;0.35;;;18.20;69.50;;;;;;5064527;28;20041;-15
2023/01/07 01:19:17;;;;;;;0.17;0.10;;;18.20;69.40;;;;;;5063334;28;20616;-10
2023/01/07 01:21:42;;;;;;;0.10;0.10;;;18.20;69.50;;;;;;5054509;28;20036;-23
2023/01/07 01:24:08;;;;;;;0.30;0.30;;;18.20;69.40;;;;;;5055410;28;20506;-14
2023/01/07 01:26:33;;;;;;;0.25;0.25;;;18.20;69.40;;;;;;5059111;28;20047;-22
2023/01/07 01:28:59;;;;;;;0.20;0.20;;;18.20;69.60;;;;;;5056249;28;20071;-12
2023/01/07 01:31:24;;;;;;;0.22;0.22;;;18.20;69.60;;;;;;5060221;28;20061;-16
2023/01/07 01:33:54;;;;;;;0.55;0.20;;;18.20;69.50;;;;;;5063747;28;20123;-10
2023/01/07 01:36:20;;;;;;;0.30;0.10;;;18.20;69.30;;;;;;5056591;28;20429;-26
2023/01/07 01:38:45;;;;;;;0.20;0.20;;;18.20;69.30;;;;;;5059780;28;20044;-20
2023/01/07 01:41:12;;;;;;;0.70;0.20;;;18.20;69.40;;;;;;5056678;28;20041;-18
2023/01/07 01:43:40;;;;;;;0.30;0.30;;;18.20;69.30;;;;;;5038737;28;20039;-21
2023/01/07 01:46:32;;;;;;;0.20;0.20;;;18.20;69.40;;;;;;5058601;28;20043;-16
2023/01/07 01:49:21;;;;;;;0.10;0.10;;;18.20;69.50;;;;;;5045687;28;20398;-22
2023/01/07 01:51:50;;;;;;;0.20;0.20;;;18.20;69.30;;;;;;5057803;28;20045;-14
2023/01/07 01:54:16;;;;;;;0.20;0.13;;;18.20;69.50;;;;;;5043913;28;20136;-35
2023/01/07 01:56:43;;;;;;;0.15;0.15;;;18.20;69.40;;;;;;5068597;28;20116;-24
2023/01/07 01:59:10;;;;;;;0.20;0.20;;;18.20;69.50;;;;;;5039404;28;20131;-14
2023/01/07 02:01:36;;;;;;;0.13;0.13;;;18.20;69.50;;;;;;5043825;28;20088;-20
2023/01/07 02:04:09;;;;;;;0.10;0.10;;;18.20;69.40;;;;;;5039847;28;20559;-25
2023/01/07 02:06:36;;;;;;;0.20;0.20;;;18.20;69.40;;;;;;5025993;28;20040;-21
2023/01/07 02:09:02;;;;;;;0.10;0.10;;;18.20;69.30;;;;;;5044452;28;20036;-16
2023/01/07 02:11:30;;;;;;;0.10;0.10;;;18.20;69.30;;;;;;5055131;28;20183;-16
2023/01/07 02:14:14;;;;;;;0.20;0.20;;;18.20;69.30;;;;;;5060623;28;20074;-16
2023/01/07 02:16:50;;;;;;;0.10;0.10;;;18.20;69.50;;;;;;5054220;28;20052;-25
2023/01/07 02:19:53;;;;;;;0.20;0.20;;;18.20;69.30;;;;;;5035193;28;20357;-14
2023/01/07 02:23:08;;;;;;;0.20;0.20;;;18.20;69.30;;;;;;5052908;28;20048;-16
2023/01/07 02:25:49;;;;;;;0.10;0.10;;;18.20;69.30;;;;;;5007582;28;20131;-11
2023/01/07 02:28:26;;;;;;;0.10;0.10;;;18.20;69.40;;;;;;5013606;28;20046;-14
2023/01/07 02:31:36;;;;;;;0.10;0.10;;;18.10;69.50;;;;;;5037521;28;20031;-28
2023/01/07 02:34:06;;;;;;;0.10;0.10;;;18.10;69.60;;;;;;4988048;28;20053;-11
2023/01/07 02:36:40;;;;;;;0.10;0.10;;;18.10;69.60;;;;;;5015177;28;20053;-11
2023/01/07 02:39:18;;;;;;;0.13;0.13;;;18.20;69.50;;;;;;5039500;28;20052;-15
2023/01/07 02:42:03;;;;;;;0.15;0.15;;;18.10;69.60;;;;;;5020610;28;20037;-17
2023/01/07 02:44:40;;;;;;;0.10;0.10;;;18.10;69.60;;;;;;5018195;28;20049;-15
2023/01/07 02:47:14;;;;;;;0.30;0.30;;;18.10;69.50;;;;;;5016911;28;20129;-20
2023/01/07 02:49:39;;;;;;;;;;;18.10;69.30;;;;;;5018523;28;20577;-15
2023/01/07 02:52:17;;;;;;;0.20;0.20;;;18.20;69.40;;;;;;5037546;28;19971;-16
2023/01/07 02:54:43;;;;;;;0.20;0.20;;;18.20;69.30;;;;;;5032480;28;20065;-21
2023/01/07 02:57:28;;;;;;;0.22;0.22;;;18.20;69.30;;;;;;5001313;28;20518;-24
2023/01/07 03:00:10;;;;;;;0.20;0.20;;;18.20;69.30;;;;;;5019025;28;20052;-26
2023/01/07 03:03:27;;;;;;;0.20;0.15;;;18.10;69.20;;;;;;5019630;28;20045;-24
2023/01/07 03:06:08;;;;;;;0.20;0.20;;;18.20;69.20;;;;;;4969367;28;20042;-32
2023/01/07 03:08:41;;;;;;;0.10;0.10;;;18.10;69.20;;;;;;4952212;28;20091;-19
2023/01/07 03:11:08;;;;;;;0.20;0.20;;;18.10;69.40;;;;;;4975454;28;20407;-26
2023/01/07 03:13:37;;;;;;;0.20;0.13;;;18.10;69.30;;;;;;4966310;28;20051;-21
2023/01/07 03:16:07;;;;;;;0.20;0.20;;;18.10;69.40;;;;;;4972628;28;20078;-21
2023/01/07 03:18:42;;;;;;;0.30;0.30;;;18.10;69.30;;;;;;4952465;28;20045;-19
2023/01/07 03:21:12;;;;;;;0.15;0.15;;;18.10;69.40;;;;;;4953321;28;20120;-22
2023/01/07 03:23:40;;;;;;;0.30;0.20;;;18.10;69.30;;;;;;4944396;28;20408;-22
2023/01/07 03:26:06;;;;;;;0.20;0.20;;;18.10;69.20;;;;;;4936448;28;20499;-25
2023/01/07 03:28:34;;;;;;;0.03;0.03;;;18.10;69.30;;;;;;4974724;28;20050;-14
2023/01/07 03:31:00;;;;;;;0.10;0.10;;;18.10;69.30;;;;;;4973457;28;20226;-11
2023/01/07 03:33:27;;;;;;;0.10;0.10;;;18.20;69.30;;;;;;4942289;28;20129;-18
2023/01/07 03:35:53;;;;;;;0.10;0.10;;;18.20;69.20;;;;;;4959060;28;20047;-22
2023/01/07 03:38:18;;;;;;;0.28;0.28;;;18.10;69.30;;;;;;4957245;28;20034;-24
2023/01/07 03:40:44;;;;;;;0.10;0.10;;;18.10;69.40;;;;;;4995663;28;20048;-18
2023/01/07 03:43:13;;;;;;;0.17;0.17;;;18.10;69.30;;;;;;5055248;28;20052;-19
2023/01/07 03:45:39;;;;;;;0.25;0.20;;;18.20;69.10;;;;;;5058044;28;20045;-11
2023/01/07 03:48:05;;;;;;;0.20;0.20;;;18.10;69.20;;;;;;5041990;28;20047;-19
2023/01/07 03:50:30;;;;;;;0.30;0.30;;;18.10;69.20;;;;;;5060910;28;20402;-31
2023/01/07 03:52:56;;;;;;;0.20;0.20;;;18.10;69.30;;;;;;5061932;28;20493;-17
2023/01/07 03:55:21;;;;;;;0.15;0.15;;;18.10;69.20;;;;;;5053628;28;20200;-20
2023/01/07 03:57:47;;;;;;;0.30;0.20;;;18.20;69.20;;;;;;5055514;28;20040;-11
2023/01/07 04:00:13;;;;;;;0.10;0.10;;;18.10;69.20;;;;;;5054829;28;20459;-15
2023/01/07 04:02:39;;;;;;;0.20;0.20;;;18.20;69.10;;;;;;5058167;28;20056;-12
2023/01/07 04:05:05;;;;;;;0.20;0.20;;;18.20;69.10;;;;;;5059051;28;20090;-30
2023/01/07 04:07:30;;;;;;;0.20;0.20;;;18.10;69.20;;;;;;5057022;28;20620;-22
2023/01/07 04:09:56;;;;;;;0.20;0.10;;;18.10;69.20;;;;;;5060281;28;20383;-34
2023/01/07 04:12:21;;;;;;;0.13;0.10;;;18.10;69.10;;;;;;5061544;28;20056;-21
2023/01/07 04:14:47;;;;;;;0.20;0.20;;;18.10;69.10;;;;;;5058967;28;20525;-11
2023/01/07 04:17:12;;;;;;;0.32;0.20;;;18.10;69.20;;;;;;5052913;28;20056;-12
2023/01/07 04:19:38;;;;;;;0.22;0.20;;;18.10;69.20;;;;;;5055582;28;20052;-16
2023/01/07 04:22:05;;;;;;;0.20;0.20;;;18.10;69.20;;;;;;5064196;28;20494;-26
2023/01/07 04:24:31;;;;;;;0.20;0.17;;;18.10;69.20;;;;;;5059135;28;20060;-20
2023/01/07 04:26:57;;;;;;;0.10;0.10;;;18.10;69.20;;;;;;5059710;28;20048;-11
2023/01/07 04:29:22;;;;;;;0.30;0.30;;;18.10;69.20;;;;;;5055477;28;20053;-31
2023/01/07 04:31:48;;;;;;;0.10;0.10;;;18.10;69.20;;;;;;5065086;28;20426;-11
2023/01/07 04:34:14;;;;;;;0.20;0.20;;;18.10;69.10;;;;;;5058419;28;20098;-17
2023/01/07 04:36:39;;;;;;;0.20;0.20;;;18.10;69.30;;;;;;5055875;28;20044;-24
2023/01/07 04:39:05;;;;;;;0.17;0.17;;;18.00;69.30;;;;;;5057837;28;20044;-16
2023/01/07 04:41:30;;;;;;;0.20;0.20;;;18.10;69.20;;;;;;5056064;28;20508;-11
2023/01/07 04:43:56;;;;;;;0.25;0.10;;;18.10;69.20;;;;;;5068371;28;20059;-18
2023/01/07 04:46:23;;;;;;;0.20;0.13;;;18.10;69.20;;;;;;5073911;28;20024;-27
2023/01/07 04:48:48;;;;;;;0.10;0.10;;;18.10;69.20;;;;;;5078460;28;20559;-30
2023/01/07 04:51:14;;;;;;;0.10;0.10;;;18.00;69.20;;;;;;5081406;28;20044;-32
2023/01/07 04:53:39;;;;;;;0.30;0.30;;;18.00;69.30;;;;;;5080891;28;20041;-12
2023/01/07 04:56:05;;;;;;;0.20;0.20;;;18.00;69.40;;;;;;5077167;28;20071;-24
2023/01/07 04:58:31;;;;;;;0.20;0.10;;;18.00;69.40;;;;;;5077339;28;20036;-14
2023/01/07 05:01:02;;;;;;;0.25;0.20;;;18.00;69.30;;;;;;5083218;28;20516;-28
2023/01/07 05:03:28;;;;;;;0.10;0.10;;;18.10;69.30;;;;;;5079859;28;20110;-11
2023/01/07 05:05:53;;;;;;;0.10;0.10;;;18.10;69.20;;;;;;5082526;28;20037;-22
2023/01/07 05:08:19;;;;;;;0.20;0.20;;;18.10;69.20;;;;;;5078523;28;20071;-19
2023/01/07 05:10:47;;;;;;;0.20;0.20;;;18.00;69.20;;;;;;5082393;28;20052;-12
2023/01/07 05:13:16;;;;;;;0.60;0.30;;;18.10;69.20;;;;;;5076718;28;20063;-11
2023/01/07 05:15:42;;;;;;;0.10;0.10;;;18.10;69.10;;;;;;5075783;28;20135;-12
2023/01/07 05:18:07;;;;;;;0.10;0.10;;;18.10;69.00;;;;;;5081601;28;20152;-11
2023/01/07 05:20:33;;;;;;;0.10;0.10;;;18.10;69.20;;;;;;5079737;28;20076;-11
2023/01/07 05:22:59;;;;;;;0.10;0.10;;;18.10;68.90;;;;;;5075623;28;20040;-11
2023/01/07 05:25:24;;;;;;;0.17;0.17;;;18.10;68.90;;;;;;5078342;28;20058;-10
2023/01/07 05:27:50;;;;;;;0.20;0.20;;;18.10;69.20;;;;;;5075811;28;20064;-11
2023/01/07 05:30:15;;;;;;;0.20;0.20;;;18.10;68.90;;;;;;5082727;28;20071;-10
2023/01/07 05:32:41;;;;;;;0.20;0.20;;;18.10;69.00;;;;;;5075500;28;20037;-16
2023/01/07 05:35:07;;;;;;;0.20;0.13;;;18.00;69.00;;;;;;5080624;28;20052;-24
2023/01/07 05:37:33;;;;;;;0.13;0.13;;;18.00;69.10;;;;;;5080668;28;20112;-24
2023/01/07 05:39:58;;;;;;;0.15;0.15;;;18.10;69.00;;;;;;5082072;28;20050;-32
2023/01/07 05:42:24;;;;;;;0.20;0.20;;;18.10;69.00;;;;;;5076330;28;20037;-27
2023/01/07 05:44:49;;;;;;;0.40;0.30;;;18.00;69.10;;;;;;5075655;28;20059;-27
2023/01/07 05:47:15;;;;;;;0.30;0.30;;;18.00;69.10;;;;;;5082402;28;20417;-29
2023/01/07 05:49:40;;;;;;;0.10;0.10;;;18.00;69.10;;;;;;5080966;28;20044;-28
2023/01/07 05:52:06;;;;;;;0.17;0.17;;;18.00;69.20;;;;;;5080583;28;20044;-21
2023/01/07 05:54:31;;;;;;;0.30;0.25;;;18.00;69.10;;;;;;5072522;28;20413;-15
2023/01/07 05:56:57;;;;;;;0.20;0.20;;;18.00;69.10;;;;;;5075280;28;20044;-21
2023/01/07 05:59:23;;;;;;;0.20;0.20;;;18.00;69.10;;;;;;5077772;28;20040;-19
2023/01/07 06:01:48;;;;;;;0.20;0.20;;;18.00;69.10;;;;;;5078084;28;20079;-24
2023/01/07 06:04:14;;;;;;;0.20;0.20;;;18.00;69.10;;;;;;5076428;28;20481;-18
2023/01/07 06:06:39;;;;;;;0.20;0.20;;;18.00;69.20;;;;;;5057245;28;20049;-11
2023/01/07 06:09:05;;;;;;;0.20;0.20;;;18.00;69.10;;;;;;5078315;28;20032;-11
2023/01/07 06:11:31;;;;;;;0.20;0.20;;;18.00;69.20;;;;;;5074788;28;20048;-27
2023/01/07 06:13:56;;;;;;;0.30;0.22;;;18.00;69.10;;;;;;5063992;28;20043;-37
2023/01/07 06:16:22;;;;;;;0.10;0.10;;;18.00;69.00;;;;;;5072974;28;20500;-16
2023/01/07 06:18:48;;;;;;;0.20;0.20;;;18.00;69.10;;;;;;5074427;28;20047;-23
2023/01/07 06:21:15;;;;;;;0.30;0.30;;;18.10;69.00;;;;;;5074750;28;20043;-25
2023/01/07 06:23:40;;;;;;;0.30;0.30;;;18.00;69.00;;;;;;5073372;28;20382;-21
2023/01/07 06:26:06;;;;;;;0.20;0.20;;;18.00;69.00;;;;;;5073223;28;20032;-23
2023/01/07 06:28:31;;;;;;;0.20;0.20;;;18.00;69.00;;;;;;5074669;28;20028;-19
2023/01/07 06:30:57;;;;;;;0.25;0.25;;;18.00;69.10;;;;;;5077715;28;20044;-11
2023/01/07 06:33:23;;;;;;;0.20;0.20;;;17.90;69.10;;;;;;5074315;28;20658;-20
2023/01/07 06:35:48;;;;;;;0.38;0.38;;;18.00;69.00;;;;;;5074507;28;20141;-22
2023/01/07 06:38:14;;;;;;;0.20;0.20;;;18.00;69.80;;;;;;5080857;28;20051;-16
2023/01/07 06:40:39;;;;;;;0.20;0.20;;;18.00;69.00;;;;;;5074229;28;20045;-11
2023/01/07 06:43:05;;;;;;;0.30;0.20;;;18.10;68.80;;;;;;5075071;28;20576;-15
2023/01/07 06:45:30;;;;;;;0.22;0.22;;;17.90;69.10;;;;;;5065636;28;20043;-11
2023/01/07 06:47:57;;;;;;;0.30;0.30;;;18.00;69.20;;;;;;5066813;28;20055;-31
2023/01/07 06:50:23;;;;;;;0.17;0.17;;;17.90;69.20;;;;;;5066157;28;20040;-10
2023/01/07 06:52:48;;;;;;;0.10;0.10;;;18.00;69.20;;;;;;5068550;28;20056;-32
2023/01/07 06:55:14;;;;;;;0.15;0.15;;;18.00;69.00;;;;;;5066116;28;20033;-20
2023/01/07 06:57:39;;;;;;;0.30;0.30;;;17.90;69.00;;;;;;5068108;28;20490;-18
2023/01/07 07:00:05;;;;;;;0.20;0.20;;;18.00;69.20;;;;;;5068468;28;20048;-12
2023/01/07 07:02:31;;;;;;;0.20;0.20;;;17.90;69.10;;;;;;5063953;28;20106;-25
2023/01/07 07:04:57;;;;;;;0.32;0.25;;;17.90;69.20;;;;;;5062646;28;20033;-27
2023/01/07 07:07:22;;;;;;;0.40;0.28;;;17.90;69.20;;;;;;5065777;28;20029;-32
2023/01/07 07:09:49;;;;;;;0.30;0.30;;;17.90;69.10;;;;;;5065101;28;20068;-27
2023/01/07 07:12:15;;;;;;;0.20;0.20;;;18.00;69.10;;;;;;5047780;28;20029;-19
2023/01/07 07:14:40;;;;;;;0.77;0.30;;;18.00;69.10;;;;;;5061795;28;20045;-18
2023/01/07 07:17:06;;;;;;;0.20;0.20;;;18.00;69.10;;;;;;5066101;28;20056;-24
2023/01/07 07:19:32;;;;;;;0.25;0.25;;;18.00;69.20;;;;;;5063046;28;20042;-27
2023/01/07 07:21:57;;;;;;;0.20;0.20;;;18.00;68.90;;;;;;5066389;28;20041;-20
2023/01/07 07:24:23;;;;;;;0.30;0.30;;;17.90;69.10;;;;;;5066271;28;20497;-29
2023/01/07 07:26:49;;;;;;;0.30;0.30;;;17.90;69.10;;;;;;5060135;28;20033;-21
2023/01/07 07:29:14;;;;;;;0.30;0.30;;;17.90;69.10;;;;;;5062264;28;20044;-25
2023/01/07 07:31:40;;;;;;;0.43;0.30;;;17.90;69.10;;;;;;5066338;28;20507;-23
2023/01/07 07:34:05;;;;;;;0.20;0.20;;;17.90;69.20;;;;;;5068413;28;20029;-27
2023/01/07 07:36:31;;;;;;;0.30;0.30;;;17.90;69.20;;;;;;5063731;28;20036;-27
2023/01/07 07:38:57;;;;;;;0.20;0.20;;;17.90;69.20;;;;;;5065888;28;20036;-29
2023/01/07 07:41:22;;;;;;;0.32;0.30;;;17.90;69.20;;;;;;5062645;28;20485;-17
2023/01/07 07:43:48;;;;;;;0.30;0.30;;;17.90;69.20;;;;;;5063529;28;20052;-38
2023/01/07 07:46:13;;;;;;;0.30;0.30;;;17.90;69.10;;;;;;5048325;28;20044;-21
2023/01/07 07:48:39;;;;;;;0.20;0.20;;;17.90;69.20;;;;;;5047176;28;20413;-16
2023/01/07 07:51:04;;;;;;;0.32;0.30;;;17.90;69.10;;;;;;5048276;28;20033;-28
2023/01/07 07:53:30;;;;;;;0.20;0.17;;;17.90;69.10;;;;;;5048927;28;20165;-26
2023/01/07 07:55:56;;;;;;;0.32;0.30;;;17.90;69.10;;;;;;5052395;28;20080;-19
2023/01/07 07:58:21;;;;;;;0.40;0.40;;;17.90;69.20;;;;;;5051629;28;20560;-30
2023/01/07 08:00:47;;;;;;;0.30;0.30;;;17.90;69.00;;;;;;5050584;28;20053;-45
2023/01/07 08:03:12;;;;;;;0.40;0.40;;;17.90;69.10;;;;;;5053129;28;20378;-31
2023/01/07 08:05:41;;;;;;;0.20;0.20;;;17.90;69.00;;;;;;5052429;28;20025;-18
2023/01/07 08:08:08;;;;;;;0.40;0.25;;;17.90;69.10;;;;;;5052725;28;20095;-24
2023/01/07 08:10:34;;;;;;;0.40;0.30;;;17.90;69.10;;;;;;5052111;28;20486;-35
2023/01/07 08:13:00;;;;;;;0.35;0.35;;;17.90;68.90;;;;;;5056407;28;20047;-34
2023/01/07 08:15:25;;;;;;;0.20;0.20;;;17.90;69.10;;;;;;5054615;28;20489;-20
2023/01/07 08:17:58;;;;;;;0.38;0.30;;;17.80;69.10;;;;;;5050269;28;20044;-25
2023/01/07 08:20:24;;;;;;;0.38;0.30;;;17.90;69.10;;;;;;5051426;28;20172;-25
2023/01/07 08:22:50;;;;;;;0.25;0.25;;;17.90;69.10;;;;;;5051207;28;20053;-27
2023/01/07 08:25:15;;;;;;;0.30;0.30;;;17.90;69.20;;;;;;5052094;28;20037;-30
2023/01/07 08:27:41;;;;;;;0.32;0.32;;;17.90;69.10;;;;;;5051422;28;20041;-18
2023/01/07 08:30:07;;;;;;;0.25;0.25;;;17.90;69.00;;;;;;5051669;28;20032;-35
2023/01/07 08:32:32;;;;;;;0.20;0.20;;;17.90;69.00;;;;;;5049718;28;20051;-19
2023/01/07 08:34:58;;;;;;;0.30;0.30;;;17.90;68.90;;;;;;5051492;28;20359;-21
2023/01/07 08:37:24;;;;;;;0.40;0.30;;;17.90;68.80;;;;;;5051707;28;20537;-17
2023/01/07 08:39:49;;;;;;;0.30;0.30;;;17.90;69.10;;;;;;5049937;28;20103;-21
2023/01/07 08:42:15;;;;;;;0.28;0.28;;;17.90;69.00;;;;;;5051554;28;20033;-18
2023/01/07 08:44:40;;;;;;;0.30;0.30;;;17.90;69.10;;;;;;5058759;28;20409;-20
2023/01/07 08:47:06;;;;;;;0.13;0.13;;;17.80;69.10;;;;;;5071490;28;20136;-30
2023/01/07 08:49:31;;;;;;;0.22;0.20;;;17.90;69.20;;;;;;5069877;28;20044;-34
2023/01/07 08:51:57;;;;;;;0.40;0.40;;;17.90;69.20;;;;;;5071968;28;20040;-28
2023/01/07 08:54:22;;;;;;;0.25;0.25;;;17.90;69.10;;;;;;5071632;28;20502;-24
2023/01/07 08:56:48;;;;;;;0.30;0.30;;;17.90;69.00;;;;;;5071328;28;20048;-18
2023/01/07 08:59:14;;;;;;;0.30;0.30;;;17.80;68.90;;;;;;5071129;28;20087;-34
2023/01/07 09:01:39;;;;;;;0.40;0.38;;;17.80;69.10;;;;;;5070515;28;20421;-33
2023/01/07 09:04:05;;;;;;;0.47;0.30;;;17.90;69.10;;;;;;5070562;28;20041;-34
2023/01/07 09:06:30;;;;;;;0.57;0.32;;;17.90;68.80;;;;;;5071643;28;20409;-14
2023/01/07 09:08:56;;;;;;;0.30;0.20;;;17.90;68.70;;;;;;5071039;28;20052;-27
2023/01/07 09:11:22;;;;;;;0.35;0.30;;;17.90;69.50;;;;;;5074678;28;20040;-40
2023/01/07 09:13:47;;;;;;;0.20;0.20;;;17.80;69.00;;;;;;5071290;28;20048;-21
2023/01/07 09:16:13;;;;;;;0.47;0.40;;;17.80;69.00;;;;;;5071274;28;20053;-37
2023/01/07 09:18:38;;;;;;;0.30;0.30;;;17.90;69.10;;;;;;5070896;28;20044;-39
2023/01/07 09:21:04;;;;;;;0.30;0.30;;;17.80;69.10;;;;;;5070841;28;20136;-37
2023/01/07 09:23:30;;;;;;;0.22;0.22;;;17.90;69.10;;;;;;5071092;28;20401;-36
2023/01/07 09:25:55;;;;;;;0.20;0.20;;;17.90;69.00;;;;;;5069261;28;20052;-31
2023/01/07 09:28:21;;;;;;;0.20;0.20;;;17.80;69.10;;;;;;5071475;28;20045;-21
2023/01/07 09:30:46;;;;;;;0.30;0.30;;;17.90;69.10;;;;;;5070716;28;20048;-39
2023/01/07 09:33:12;;;;;;;0.50;0.30;;;17.80;69.00;;;;;;5071162;28;20124;-46
2023/01/07 09:35:37;;;;;;;0.30;0.30;;;17.80;69.00;;;;;;5070765;28;20032;-33
2023/01/07 09:38:03;;;;;;;0.20;0.20;;;17.80;69.00;;;;;;5072241;28;20401;-37
2023/01/07 09:40:35;;;;;;;0.28;0.28;;;17.90;69.10;;;;;;5069708;28;20044;-29
2023/01/07 09:43:07;;;;;;;0.40;0.40;;;17.90;68.90;;;;;;5069009;28;20044;-31
2023/01/07 09:45:40;;;;;;;0.50;0.50;;;17.90;68.90;;;;;;5084928;28;20045;-23
2023/01/07 09:48:35;;;;;;;0.30;0.30;;;17.80;68.80;;;;;;5084512;28;20052;-30
2023/01/07 09:51:08;;;;;;;0.30;0.30;;;17.90;68.80;;;;;;5063311;28;20041;-38
2023/01/07 09:53:39;;;;;;;0.60;0.40;;;17.90;68.80;;;;;;5085498;28;20428;-23
2023/01/07 09:56:07;;;;;;;0.30;0.30;;;17.80;69.80;;;;;;5071908;28;20033;-37
2023/01/07 09:58:33;;;;;;;0.30;0.30;;;17.80;69.00;;;;;;5068163;28;20036;-29
2023/01/07 10:01:20;;;;;;;0.30;0.30;;;17.80;69.00;;;;;;5085845;28;20110;-27
2023/01/07 10:03:48;;;;;;;0.30;0.30;;;17.80;68.90;;;;;;5084793;28;20045;-37
2023/01/07 10:06:52;;;;;;;0.40;0.40;;;17.90;69.00;;;;;;5071622;28;20037;-21
2023/01/07 10:09:50;;;;;;;0.30;0.30;;;17.80;68.90;;;;;;5050344;28;20433;-22
2023/01/07 10:12:24;;;;;;;0.30;0.30;;;17.80;69.00;;;;;;5010652;28;20042;-32
2023/01/07 10:15:20;;;;;;;0.35;0.35;;;17.80;69.00;;;;;;5007986;28;20538;-32
2023/01/07 10:18:05;;;;;;;0.35;0.35;;;17.80;68.90;;;;;;5008106;28;20395;-21
2023/01/07 10:21:11;;;;;;;0.20;0.20;;;17.80;68.90;;;;;;5009366;28;20056;-27
2023/01/07 10:23:38;;;;;;;0.40;0.30;;;17.80;68.90;;;;;;4989543;28;20035;-25
2023/01/07 10:26:04;;;;;;;0.20;0.20;;;17.90;68.90;;;;;;4978450;28;20053;-32
2023/01/07 10:28:35;;;;;;;0.30;0.30;;;17.90;68.90;;;;;;4975349;28;20096;-25
2023/01/07 10:31:01;;;;;;;0.30;0.30;;;17.80;69.00;;;;;;4977758;28;20049;-28
2023/01/07 10:33:28;;;;;;;0.40;0.40;;;17.80;69.00;;;;;;4990665;28;20481;-25
2023/01/07 10:36:29;;;;;;;0.30;0.30;;;17.80;69.10;;;;;;5008127;28;20046;-36
2023/01/07 10:39:18;;;;;;;0.30;0.30;;;17.80;69.00;;;;;;5010820;28;20030;-30
2023/01/07 10:41:52;;;;;;;0.35;0.35;;;17.80;69.00;;;;;;5014353;28;20049;-17
2023/01/07 10:44:32;;;;;;;0.25;0.25;;;17.80;69.00;;;;;;5011978;28;20495;-40
2023/01/07 10:47:30;;;;;;;0.20;0.20;;;17.80;68.90;;;;;;5005350;28;20093;-32
2023/01/07 10:50:02;;;;;;;0.45;0.20;;;17.80;69.00;;;;;;5052053;28;21119;-29
2023/01/07 10:52:55;;;;;;;0.30;0.30;;;17.80;69.00;;;;;;5070552;28;20059;-27
2023/01/07 10:55:42;;;;;;;0.40;0.40;;;17.80;69.00;;;;;;5069060;28;20053;-31
2023/01/07 10:58:09;;;;;;;0.30;0.30;;;17.80;69.10;;;;;;5067560;28;20102;-39
2023/01/07 11:00:35;;;;;;;0.47;0.30;;;17.80;69.00;;;;;;5067689;28;20433;-26
2023/01/07 11:03:00;;;;;;;0.28;0.28;;;17.80;68.80;;;;;;5067813;28;20529;-22
2023/01/07 11:05:32;;;;;;;0.20;0.20;;;17.80;68.90;;;;;;5069625;28;20102;-18
2023/01/07 11:08:00;;;;;;;0.30;0.30;;;17.80;69.00;;;;;;5068213;28;20230;-21
2023/01/07 11:10:28;;;;;;;0.50;0.30;;;17.80;69.00;;;;;;5083956;28;20044;-43
2023/01/07 11:12:56;;;;;;;0.20;0.20;;;17.70;69.00;;;;;;5068033;28;20036;-33
2023/01/07 11:15:35;;;;;;;0.38;0.38;;;17.80;69.00;;;;;;5067045;28;20075;-38
2023/01/07 11:18:06;;;;;;;0.30;0.30;;;17.80;68.80;;;;;;5064204;28;20040;-18
2023/01/07 11:20:49;;;;;;;0.30;0.30;;;17.80;68.80;;;;;;5067158;28;20127;-29
2023/01/07 11:23:26;;;;;;;0.20;0.20;;;17.80;68.90;;;;;;5065421;28;20119;-38
2023/01/07 11:25:51;;;;;;;0.40;0.40;;;17.80;69.00;;;;;;5063742;28;20281;-19
2023/01/07 11:28:18;;;;;;;0.20;0.20;;;17.80;69.00;;;;;;5067579;28;20043;-35
2023/01/07 11:30:44;;;;;;;0.40;0.40;;;17.80;69.00;;;;;;5064125;28;20128;-20
2023/01/07 11:33:20;;;;;;;0.38;0.38;;;17.80;69.80;;;;;;5083906;28;20143;-36
2023/01/07 11:35:52;;;;;;;0.30;0.30;;;17.70;69.00;;;;;;5066188;28;20044;-29
2023/01/07 11:38:26;;;;;;;0.30;0.30;;;17.80;69.00;;;;;;5083353;28;20182;-40
2023/01/07 11:40:58;;;;;;;;;;;17.80;69.00;;;;;;5056752;28;20036;-42
2023/01/07 11:43:24;;;;;;;0.90;0.30;;;17.80;69.00;;;;;;5069462;28;19919;-27
2023/01/07 11:46:00;;;;;;;0.30;0.30;;;17.80;69.00;;;;;;5064030;28;20135;-33
2023/01/07 11:48:33;;;;;;;0.20;0.20;;;17.80;69.00;;;;;;5063495;28;20036;-31
2023/01/07 11:51:04;;;;;;;0.30;0.30;;;17.80;69.00;;;;;;5066023;28;20068;-31
2023/01/07 11:53:44;;;;;;;0.25;0.20;;;17.80;69.00;;;;;;5067707;28;20041;-19
2023/01/07 11:56:19;;;;;;;0.30;0.30;;;17.80;69.00;;;;;;5048814;28;20044;-24
2023/01/07 11:58:46;;;;;;;0.25;0.25;;;17.80;68.90;;;;;;5061637;28;20519;-31
2023/01/07 12:01:15;;;;;;;0.30;0.30;;;17.80;68.90;;;;;;5030404;28;20064;-23
2023/01/07 12:03:42;;;;;;;0.30;0.30;;;17.80;69.00;;;;;;5063576;28;20040;-22
2023/01/07 12:06:10;;;;;;;0.30;0.30;;;17.80;69.00;;;;;;5057382;28;20098;-43
2023/01/07 12:08:38;;;;;;;0.20;0.20;;;17.80;69.00;;;;;;5065243;28;20037;-25
2023/01/07 12:11:09;;;;;;;0.20;0.20;;;17.80;69.80;;;;;;5061304;28;20042;-39
2023/01/07 12:13:34;;;;;;;0.28;0.28;;;17.80;69.00;;;;;;5038806;28;20056;-36
2023/01/07 12:16:00;;;;;;;0.30;0.30;;;17.80;69.00;;;;;;5046437;28;20068;-21
2023/01/07 12:19:00;;;;;;;0.38;0.38;;;17.80;68.80;;;;;;5058607;28;20509;-26
2023/01/07 12:21:40;;;;;;;0.30;0.30;;;17.70;69.00;;;;;;5054157;28;20067;-29
2023/01/07 12:24:33;;;;;;;0.50;0.40;;;17.80;69.10;;;;;;5033233;28;20049;-33
2023/01/07 12:27:27;;;;;;;0.40;0.38;;;17.80;69.00;;;;;;5048362;28;20049;-25
2023/01/07 12:30:02;;;;;;;0.40;0.40;;;17.70;69.10;;;;;;5049422;28;20037;-41
2023/01/07 12:32:33;;;;;;;0.30;0.30;;;17.70;69.10;;;;;;5063180;28;20143;-38
2023/01/07 12:35:01;;;;;;;0.38;0.38;;;17.80;69.00;;;;;;5064451;28;20060;-40
2023/01/07 12:37:36;;;;;;;0.25;0.25;;;17.80;69.00;;;;;;5045943;28;20060;-36
2023/01/07 12:40:16;;;;;;;0.55;0.50;;;17.80;69.00;;;;;;5050905;28;20032;-28
2023/01/07 12:42:54;;;;;;;0.38;0.38;;;17.70;68.90;;;;;;5045023;28;20132;-29
2023/01/07 12:45:28;;;;;;;0.30;0.30;;;17.80;69.00;;;;;;5054663;28;20048;-37
2023/01/07 12:48:00;;;;;;;0.50;0.50;;;17.80;68.90;;;;;;5078415;28;20220;-26
2023/01/07 12:50:40;;;;;;;0.28;0.20;;;17.70;68.90;;;;;;5073004;28;20032;-34
2023/01/07 12:53:17;;;;;;;0.30;0.30;;;17.70;69.00;;;;;;5077709;28;20097;-35
2023/01/07 12:55:51;;;;;;;0.57;0.32;;;17.70;68.90;;;;;;5069164;28;20031;-47
2023/01/07 12:58:58;;;;;;;0.20;0.20;;;17.80;69.00;;;;;;5072460;28;20041;-35
2023/01/07 13:01:33;;;;;;;0.60;0.35;;;17.70;68.90;;;;;;5034810;28;20094;-10